createdAt,value
2018-10-16T00:00:17.646Z,15.40
2018-10-16T00:02:47.360Z,15.30
2018-10-16T00:05:17.807Z,15.30
2018-10-16T00:07:47.393Z,15.30
2018-10-16T00:10:22.030Z,15.30
2018-10-16T00:12:51.303Z,15.30
2018-10-16T00:15:20.643Z,15.30
2018-10-16T00:17:49.902Z,15.20
2018-10-16T00:20:19.194Z,15.20
2018-10-16T00:22:48.473Z,15.20
2018-10-16T00:25:18.450Z,15.20
2018-10-16T00:27:47.724Z,15.10
2018-10-16T00:30:17.278Z,15.10
2018-10-16T00:32:46.768Z,15.10
2018-10-16T00:35:16.215Z,15.10
2018-10-16T00:37:45.502Z,15.10
2018-10-16T00:40:14.775Z,15.10
2018-10-16T00:42:44.065Z,15.00
2018-10-16T00:45:13.357Z,15.00
2018-10-16T00:47:42.818Z,15.00
2018-10-16T00:50:12.105Z,15.00
2018-10-16T00:52:41.416Z,15.00
2018-10-16T00:55:10.981Z,15.00
2018-10-16T00:57:40.998Z,14.90
2018-10-16T01:00:12.024Z,14.90
2018-10-16T01:02:42.177Z,14.90
2018-10-16T01:05:12.380Z,14.90
2018-10-16T01:07:42.194Z,14.90
2018-10-16T01:10:12.443Z,14.80
2018-10-16T01:12:41.992Z,14.80
2018-10-16T01:15:12.129Z,14.80
2018-10-16T01:17:41.625Z,14.80
2018-10-16T01:20:13.040Z,14.80
2018-10-16T01:22:42.710Z,14.70
2018-10-16T01:25:12.929Z,14.70
2018-10-16T01:27:42.760Z,14.70
2018-10-16T01:30:12.027Z,14.70
2018-10-16T01:32:41.323Z,14.70
2018-10-16T01:35:11.863Z,14.70
2018-10-16T01:37:41.581Z,14.60
2018-10-16T01:40:11.589Z,14.60
2018-10-16T01:42:41.646Z,14.60
2018-10-16T01:45:11.548Z,14.60
2018-10-16T01:47:40.865Z,14.50
2018-10-16T01:50:10.708Z,14.50
2018-10-16T01:52:40.009Z,14.50
2018-10-16T01:55:09.638Z,14.50
2018-10-16T01:57:38.903Z,14.50
2018-10-16T02:00:09.521Z,14.40
2018-10-16T02:02:39.106Z,14.40
2018-10-16T02:05:08.524Z,14.40
2018-10-16T02:07:37.921Z,14.40
2018-10-16T02:10:07.704Z,14.40
2018-10-16T02:12:37.229Z,14.30
2018-10-16T02:15:07.935Z,14.30
2018-10-16T02:17:37.990Z,14.30
2018-10-16T02:20:07.766Z,14.30
2018-10-16T02:22:37.203Z,14.30
2018-10-16T02:25:06.701Z,14.30
2018-10-16T02:27:36.015Z,14.30
2018-10-16T02:30:06.883Z,14.20
2018-10-16T02:32:36.240Z,14.20
2018-10-16T02:35:06.614Z,14.20
2018-10-16T02:37:36.008Z,14.20
2018-10-16T02:40:05.818Z,14.20
2018-10-16T02:42:35.072Z,14.20
2018-10-16T02:45:04.673Z,14.10
2018-10-16T02:47:33.958Z,14.10
2018-10-16T02:50:03.237Z,14.10
2018-10-16T02:52:32.498Z,14.10
2018-10-16T02:55:01.780Z,14.10
2018-10-16T02:57:31.837Z,14.10
2018-10-16T03:00:01.078Z,14.00
2018-10-16T03:02:30.358Z,14.00
2018-10-16T03:04:59.613Z,14.00
2018-10-16T03:07:28.874Z,14.00
2018-10-16T03:09:58.141Z,14.00
2018-10-16T03:12:27.414Z,13.90
2018-10-16T03:14:56.675Z,13.90
2018-10-16T03:17:25.937Z,13.90
2018-10-16T03:19:56.253Z,13.90
2018-10-16T03:22:25.532Z,13.90
2018-10-16T03:24:54.770Z,13.90
2018-10-16T03:27:24.053Z,13.90
2018-10-16T03:29:53.332Z,13.90
2018-10-16T03:32:22.606Z,13.80
2018-10-16T03:34:51.876Z,13.80
2018-10-16T03:37:21.240Z,13.80
2018-10-16T03:39:50.527Z,13.80
2018-10-16T03:42:19.810Z,13.80
2018-10-16T03:44:49.087Z,13.70
2018-10-16T03:47:18.443Z,13.70
2018-10-16T03:49:47.705Z,13.70
2018-10-16T03:52:17.007Z,13.70
2018-10-16T03:54:46.313Z,13.70
2018-10-16T03:57:15.652Z,13.70
2018-10-16T03:59:44.875Z,13.70
2018-10-16T04:02:14.160Z,13.60
2018-10-16T04:04:43.420Z,13.60
2018-10-16T04:07:12.679Z,13.60
2018-10-16T04:09:41.960Z,13.60
2018-10-16T04:12:11.223Z,13.60
2018-10-16T04:14:40.492Z,13.50
2018-10-16T04:17:09.773Z,13.50
2018-10-16T04:19:39.025Z,13.50
2018-10-16T04:22:08.306Z,13.50
2018-10-16T04:24:37.562Z,13.50
2018-10-16T04:27:06.893Z,13.50
2018-10-16T04:29:36.166Z,13.50
2018-10-16T04:32:05.599Z,13.50
2018-10-16T04:34:34.871Z,13.50
2018-10-16T04:37:04.205Z,13.40
2018-10-16T04:39:33.519Z,13.40
2018-10-16T04:42:02.822Z,13.40
2018-10-16T04:44:32.119Z,13.40
2018-10-16T04:47:01.385Z,13.40
2018-10-16T04:49:30.677Z,13.40
2018-10-16T04:52:00.002Z,13.30
2018-10-16T04:54:29.272Z,13.30
2018-10-16T04:56:58.598Z,13.30
2018-10-16T04:59:27.859Z,13.30
2018-10-16T05:01:57.158Z,13.30
2018-10-16T05:04:26.438Z,13.30
2018-10-16T05:06:55.763Z,13.30
2018-10-16T05:09:25.075Z,13.20
2018-10-16T05:11:55.422Z,13.20
2018-10-16T05:14:24.710Z,13.20
2018-10-16T05:16:54.012Z,13.20
2018-10-16T05:19:23.260Z,13.20
2018-10-16T05:21:52.589Z,13.20
2018-10-16T05:24:21.867Z,13.20
2018-10-16T05:26:51.189Z,13.10
2018-10-16T05:29:20.486Z,13.10
2018-10-16T05:31:49.753Z,13.10
2018-10-16T05:34:19.047Z,13.10
2018-10-16T05:36:48.314Z,13.10
2018-10-16T05:39:17.623Z,13.10
2018-10-16T05:41:46.871Z,13.10
2018-10-16T05:44:16.152Z,13.10
2018-10-16T05:46:45.422Z,13.00
2018-10-16T05:49:14.735Z,13.00
2018-10-16T05:51:44.024Z,13.00
2018-10-16T05:54:13.318Z,13.00
2018-10-16T05:56:42.615Z,13.00
2018-10-16T05:59:11.873Z,13.00
2018-10-16T06:01:41.138Z,13.00
2018-10-16T06:04:10.406Z,13.00
2018-10-16T06:06:39.674Z,13.00
2018-10-16T06:09:09.094Z,12.90
2018-10-16T06:11:38.356Z,12.90
2018-10-16T06:14:07.627Z,12.90
2018-10-16T06:16:36.867Z,12.90
2018-10-16T06:19:06.310Z,12.90
2018-10-16T06:21:35.563Z,12.90
2018-10-16T06:24:04.940Z,12.90
2018-10-16T06:26:34.278Z,12.90
2018-10-16T06:29:03.553Z,12.90
2018-10-16T06:31:32.852Z,12.90
2018-10-16T06:34:02.181Z,12.90
2018-10-16T06:36:31.468Z,12.90
2018-10-16T06:39:00.718Z,12.80
2018-10-16T06:41:30.063Z,12.80
2018-10-16T06:43:59.406Z,12.80
2018-10-16T06:46:28.966Z,12.80
2018-10-16T06:48:58.305Z,12.80
2018-10-16T06:51:27.509Z,12.80
2018-10-16T06:53:56.759Z,12.80
2018-10-16T06:56:26.020Z,12.80
2018-10-16T06:58:55.293Z,12.80
2018-10-16T07:01:24.552Z,12.80
2018-10-16T07:03:53.829Z,12.80
2018-10-16T07:06:23.118Z,12.80
2018-10-16T07:08:52.344Z,12.80
2018-10-16T07:11:21.597Z,12.80
2018-10-16T07:13:50.847Z,12.80
2018-10-16T07:16:20.089Z,12.80
2018-10-16T07:18:49.336Z,12.80
2018-10-16T07:21:18.657Z,12.80
2018-10-16T07:23:47.968Z,12.80
2018-10-16T07:26:17.191Z,12.80
2018-10-16T07:28:46.451Z,12.80
2018-10-16T07:31:15.862Z,12.80
2018-10-16T07:33:45.143Z,12.90
2018-10-16T07:36:19.814Z,12.90
2018-10-16T07:38:52.839Z,12.90
2018-10-16T07:41:22.128Z,12.90
2018-10-16T07:43:51.538Z,12.90
2018-10-16T07:46:21.056Z,12.90
2018-10-16T07:48:50.308Z,13.00
2018-10-16T07:51:19.687Z,13.00
2018-10-16T07:53:48.963Z,13.00
2018-10-16T07:56:18.345Z,13.10
2018-10-16T07:58:47.599Z,13.10
2018-10-16T08:01:16.845Z,13.10
2018-10-16T08:03:46.129Z,13.20
2018-10-16T08:06:15.450Z,13.20
2018-10-16T08:08:44.715Z,13.20
2018-10-16T08:11:14.008Z,13.30
2018-10-16T08:13:43.261Z,13.30
2018-10-16T08:16:12.518Z,13.40
2018-10-16T08:18:42.187Z,13.40
2018-10-16T08:21:11.443Z,13.50
2018-10-16T08:23:40.735Z,13.50
2018-10-16T08:26:10.024Z,13.60
2018-10-16T08:28:39.309Z,13.60
2018-10-16T08:31:08.574Z,13.70
2018-10-16T08:33:37.892Z,13.70
2018-10-16T08:36:07.262Z,13.80
2018-10-16T08:38:51.486Z,13.80
2018-10-16T08:41:24.539Z,13.90
2018-10-16T08:45:11.615Z,14.00
2018-10-16T08:47:58.582Z,14.00
2018-10-16T08:50:46.498Z,14.10
2018-10-16T08:53:15.748Z,14.10
2018-10-16T08:55:45.006Z,14.20
2018-10-16T08:58:14.279Z,14.30
2018-10-16T09:00:43.597Z,14.30
2018-10-16T09:03:12.843Z,14.40
2018-10-16T09:05:42.096Z,14.50
2018-10-16T09:08:11.339Z,14.60
2018-10-16T09:10:40.608Z,14.70
2018-10-16T09:13:09.909Z,14.70
2018-10-16T09:15:39.182Z,14.80
2018-10-16T09:18:08.448Z,14.90
2018-10-16T09:20:37.729Z,15.00
2018-10-16T09:23:06.986Z,15.10
2018-10-16T09:25:36.252Z,15.20
2018-10-16T09:28:06.257Z,15.30
2018-10-16T09:30:35.567Z,15.40
2018-10-16T09:33:04.833Z,15.50
2018-10-16T09:35:34.090Z,15.60
2018-10-16T09:38:03.419Z,15.70
2018-10-16T09:40:32.668Z,15.80
2018-10-16T09:43:01.931Z,15.90
2018-10-16T09:45:31.229Z,16.00
2018-10-16T09:48:00.479Z,16.10
2018-10-16T09:50:29.789Z,16.20
2018-10-16T09:52:59.040Z,16.30
2018-10-16T09:55:28.301Z,16.40
2018-10-16T09:57:57.578Z,16.50
2018-10-16T10:00:31.962Z,16.60
2018-10-16T10:03:01.248Z,16.70
2018-10-16T10:05:30.545Z,16.80
2018-10-16T10:07:59.815Z,16.90
2018-10-16T10:10:29.119Z,17.00
2018-10-16T10:12:58.390Z,17.10
2018-10-16T10:15:27.703Z,17.10
2018-10-16T10:17:56.976Z,17.20
2018-10-16T10:20:26.254Z,17.30
2018-10-16T10:22:55.544Z,17.40
2018-10-16T10:25:24.894Z,17.50
2018-10-16T10:27:54.055Z,17.60
2018-10-16T10:30:23.335Z,17.60
2018-10-16T10:32:52.610Z,17.70
2018-10-16T10:35:21.944Z,17.80
2018-10-16T10:37:51.174Z,17.90
2018-10-16T10:40:20.437Z,17.90
2018-10-16T10:42:49.712Z,18.00
2018-10-16T10:45:19.031Z,18.10
2018-10-16T10:47:48.287Z,18.20
2018-10-16T10:50:17.646Z,18.20
2018-10-16T10:52:46.842Z,18.30
2018-10-16T10:55:16.111Z,18.40
2018-10-16T10:57:45.375Z,18.40
2018-10-16T11:00:16.874Z,18.50
2018-10-16T11:02:48.745Z,18.60
2018-10-16T11:05:18.209Z,18.60
2018-10-16T11:07:47.586Z,18.70
2018-10-16T11:10:16.880Z,18.80
2018-10-16T11:12:46.383Z,18.90
2018-10-16T11:15:15.775Z,18.90
2018-10-16T11:17:44.961Z,19.00
2018-10-16T11:20:14.566Z,19.10
2018-10-16T11:22:43.880Z,19.20
2018-10-16T11:25:13.178Z,19.20
2018-10-16T11:27:42.418Z,19.30
2018-10-16T11:30:13.806Z,19.40
2018-10-16T11:32:43.110Z,19.40
2018-10-16T11:35:13.652Z,19.50
2018-10-16T11:37:43.170Z,19.60
2018-10-16T11:40:12.750Z,19.60
2018-10-16T11:42:42.882Z,19.70
2018-10-16T11:45:12.254Z,19.70
2018-10-16T11:47:41.447Z,19.80
2018-10-16T11:50:11.767Z,19.90
2018-10-16T11:52:41.441Z,19.90
2018-10-16T11:55:11.112Z,20.00
2018-10-16T11:57:40.409Z,20.10
2018-10-16T12:00:14.662Z,20.10
2018-10-16T12:02:44.245Z,20.20
2018-10-16T12:05:13.583Z,20.20
2018-10-16T12:07:42.856Z,20.30
2018-10-16T12:10:12.132Z,20.30
2018-10-16T12:12:41.419Z,20.40
2018-10-16T12:15:10.684Z,20.40
2018-10-16T12:17:45.603Z,20.50
2018-10-16T12:20:20.092Z,20.50
2018-10-16T12:22:49.378Z,20.60
2018-10-16T12:25:18.955Z,20.60
2018-10-16T12:27:48.293Z,20.70
2018-10-16T12:30:17.529Z,20.70
2018-10-16T12:32:46.792Z,20.80
2018-10-16T12:35:16.101Z,20.80
2018-10-16T12:37:45.418Z,20.80
2018-10-16T12:40:14.996Z,20.90
2018-10-16T12:42:44.277Z,20.90
2018-10-16T12:45:14.634Z,21.00
2018-10-16T12:47:44.138Z,21.00
2018-10-16T12:50:13.448Z,21.00
2018-10-16T12:52:42.664Z,21.10
2018-10-16T12:55:12.082Z,21.10
2018-10-16T12:57:41.359Z,21.10
2018-10-16T13:00:10.921Z,21.20
2018-10-16T13:02:40.158Z,21.20
2018-10-16T13:05:09.495Z,21.20
2018-10-16T13:07:39.693Z,21.20
2018-10-16T13:10:14.613Z,21.30
2018-10-16T13:12:44.828Z,21.30
2018-10-16T13:15:15.026Z,21.30
2018-10-16T13:17:44.592Z,21.40
2018-10-16T13:20:15.136Z,21.40
2018-10-16T13:22:46.508Z,21.40
2018-10-16T13:25:16.619Z,21.50
2018-10-16T13:27:46.258Z,21.50
2018-10-16T13:30:17.839Z,21.50
2018-10-16T13:32:48.408Z,21.60
2018-10-16T13:35:18.949Z,21.60
2018-10-16T13:37:48.998Z,21.70
2018-10-16T13:40:18.253Z,21.70
2018-10-16T13:42:47.561Z,21.70
2018-10-16T13:45:17.505Z,21.80
2018-10-16T13:47:46.778Z,21.80
2018-10-16T13:50:16.931Z,21.80
2018-10-16T13:52:46.628Z,21.90
2018-10-16T13:55:15.996Z,21.90
2018-10-16T13:57:45.363Z,22.00
2018-10-16T14:00:17.323Z,22.00
2018-10-16T14:02:47.703Z,22.00
2018-10-16T14:05:16.968Z,22.10
2018-10-16T14:07:46.236Z,22.10
2018-10-16T14:10:16.277Z,22.10
2018-10-16T14:12:46.389Z,22.20
2018-10-16T14:15:16.250Z,22.20
2018-10-16T14:17:45.500Z,22.20
2018-10-16T14:20:15.129Z,22.30
2018-10-16T14:22:45.016Z,22.30
2018-10-16T14:25:15.428Z,22.30
2018-10-16T14:27:44.762Z,22.30
2018-10-16T14:30:15.363Z,22.30
2018-10-16T14:32:44.683Z,22.30
2018-10-16T14:35:14.483Z,22.40
2018-10-16T14:37:43.953Z,22.40
2018-10-16T14:40:14.757Z,22.40
2018-10-16T14:42:44.212Z,22.40
2018-10-16T14:45:14.130Z,22.50
2018-10-16T14:47:43.386Z,22.40
2018-10-16T14:50:14.042Z,22.50
2018-10-16T14:52:43.451Z,22.50
2018-10-16T14:55:12.711Z,22.50
2018-10-16T14:57:42.122Z,22.50
2018-10-16T15:00:12.906Z,22.50
2018-10-16T15:02:42.165Z,22.50
2018-10-16T15:05:12.522Z,22.50
2018-10-16T15:07:41.924Z,22.50
2018-10-16T15:10:11.481Z,22.50
2018-10-16T15:12:40.721Z,22.50
2018-10-16T15:15:10.448Z,22.50
2018-10-16T15:17:39.730Z,22.50
2018-10-16T15:20:10.590Z,22.50
2018-10-16T15:22:39.786Z,22.40
2018-10-16T15:25:10.531Z,22.40
2018-10-16T15:27:40.159Z,22.40
2018-10-16T15:30:14.249Z,22.30
2018-10-16T15:32:43.962Z,22.30
2018-10-16T15:35:13.215Z,22.30
2018-10-16T15:37:42.457Z,22.30
2018-10-16T15:40:12.213Z,22.20
2018-10-16T15:42:43.021Z,22.20
2018-10-16T15:45:13.001Z,22.20
2018-10-16T15:47:42.699Z,22.10
2018-10-16T15:50:12.319Z,22.10
2018-10-16T15:52:41.482Z,22.10
2018-10-16T15:55:11.536Z,22.10
2018-10-16T15:57:40.831Z,22.10
2018-10-16T16:00:13.709Z,22.00
2018-10-16T16:02:43.029Z,22.00
2018-10-16T16:05:12.335Z,22.00
2018-10-16T16:07:41.672Z,22.00
2018-10-16T16:10:13.989Z,21.90
2018-10-16T16:12:43.297Z,21.90
2018-10-16T16:15:13.426Z,21.80
2018-10-16T16:17:43.259Z,21.80
2018-10-16T16:20:13.831Z,21.80
2018-10-16T16:22:43.219Z,21.70
2018-10-16T16:25:13.689Z,21.70
2018-10-16T16:27:42.973Z,21.60
2018-10-16T16:30:15.092Z,21.60
2018-10-16T16:32:44.297Z,21.50
2018-10-16T16:35:13.677Z,21.50
2018-10-16T16:37:42.950Z,21.40
2018-10-16T16:40:13.621Z,21.30
2018-10-16T16:42:42.946Z,21.30
2018-10-16T16:45:12.729Z,21.20
2018-10-16T16:47:42.014Z,21.20
2018-10-16T16:50:12.201Z,21.10
2018-10-16T16:52:42.601Z,21.00
2018-10-16T16:55:13.509Z,21.00
2018-10-16T16:57:42.998Z,20.90
2018-10-16T17:00:13.428Z,20.80
2018-10-16T17:02:44.149Z,20.80
2018-10-16T17:05:14.043Z,20.70
2018-10-16T17:07:43.997Z,20.60
2018-10-16T17:10:13.414Z,20.60
2018-10-16T17:12:42.740Z,20.50
2018-10-16T17:15:15.556Z,20.40
2018-10-16T17:17:45.933Z,20.40
2018-10-16T17:20:15.316Z,20.30
2018-10-16T17:22:44.696Z,20.30
2018-10-16T17:25:15.252Z,20.20
2018-10-16T17:27:45.250Z,20.10
2018-10-16T17:30:16.503Z,20.10
2018-10-16T17:32:46.092Z,20.10
2018-10-16T17:35:15.605Z,20.00
2018-10-16T17:37:44.971Z,19.90
2018-10-16T17:40:15.629Z,19.90
2018-10-16T17:42:45.246Z,19.80
2018-10-16T17:45:15.888Z,19.80
2018-10-16T17:47:45.226Z,19.80
2018-10-16T17:50:16.527Z,19.70
2018-10-16T17:52:45.910Z,19.70
2018-10-16T17:55:15.849Z,19.60
2018-10-16T17:57:45.154Z,19.60
2018-10-16T18:00:17.253Z,19.50
2018-10-16T18:02:46.766Z,19.50
2018-10-16T18:05:16.384Z,19.40
2018-10-16T18:07:46.066Z,19.40
2018-10-16T18:10:15.424Z,19.30
2018-10-16T18:12:44.745Z,19.30
2018-10-16T18:15:14.820Z,19.30
2018-10-16T18:17:44.375Z,19.20
2018-10-16T18:20:15.393Z,19.20
2018-10-16T18:22:45.912Z,19.20
2018-10-16T18:25:16.137Z,19.10
2018-10-16T18:27:47.082Z,19.10
2018-10-16T18:30:16.359Z,19.00
2018-10-16T18:32:45.669Z,19.00
2018-10-16T18:35:14.931Z,19.00
2018-10-16T18:37:44.379Z,18.90
2018-10-16T18:40:14.305Z,18.90
2018-10-16T18:42:43.569Z,18.80
2018-10-16T18:45:14.057Z,18.80
2018-10-16T18:47:43.238Z,18.80
2018-10-16T18:50:13.765Z,18.70
2018-10-16T18:52:43.662Z,18.70
2018-10-16T18:55:14.014Z,18.70
2018-10-16T18:57:43.333Z,18.60
2018-10-16T19:00:14.498Z,18.60
2018-10-16T19:02:43.778Z,18.60
2018-10-16T19:05:15.636Z,18.50
2018-10-16T19:07:45.716Z,18.50
2018-10-16T19:10:16.437Z,18.50
2018-10-16T19:12:46.095Z,18.40
2018-10-16T19:15:16.522Z,18.40
2018-10-16T19:17:46.613Z,18.40
2018-10-16T19:20:17.029Z,18.30
2018-10-16T19:22:47.071Z,18.30
2018-10-16T19:25:19.377Z,18.30
2018-10-16T19:27:48.720Z,18.20
2018-10-16T19:30:17.969Z,18.20
2018-10-16T19:32:47.375Z,18.20
2018-10-16T19:35:16.860Z,18.10
2018-10-16T19:37:46.250Z,18.10
2018-10-16T19:40:15.607Z,18.10
2018-10-16T19:42:45.777Z,18.10
2018-10-16T19:45:15.598Z,18.10
2018-10-16T19:47:48.811Z,18.00
2018-10-16T19:50:18.069Z,18.00
2018-10-16T19:52:47.491Z,18.00
2018-10-16T19:55:16.876Z,17.90
2018-10-16T19:57:46.640Z,17.90
2018-10-16T20:00:16.075Z,17.90
2018-10-16T20:02:45.731Z,17.90
2018-10-16T20:05:15.148Z,17.80
2018-10-16T20:07:45.908Z,17.80
2018-10-16T20:10:15.433Z,17.80
2018-10-16T20:12:45.191Z,17.80
2018-10-16T20:15:15.300Z,17.70
2018-10-16T20:17:45.242Z,17.70
2018-10-16T20:20:14.684Z,17.70
2018-10-16T20:22:44.519Z,17.60
2018-10-16T20:25:14.720Z,17.60
2018-10-16T20:27:44.624Z,17.60
2018-10-16T20:30:14.311Z,17.60
2018-10-16T20:32:44.109Z,17.50
2018-10-16T20:35:14.268Z,17.50
2018-10-16T20:37:44.481Z,17.50
2018-10-16T20:40:13.931Z,17.40
2018-10-16T20:42:43.875Z,17.40
2018-10-16T20:45:13.427Z,17.40
2018-10-16T20:47:43.174Z,17.40
2018-10-16T20:50:12.590Z,17.30
2018-10-16T20:52:42.009Z,17.30
2018-10-16T20:55:11.975Z,17.30
2018-10-16T20:57:42.031Z,17.30
2018-10-16T21:00:11.258Z,17.20
2018-10-16T21:02:40.525Z,17.20
2018-10-16T21:05:10.308Z,17.20
2018-10-16T21:07:39.368Z,17.20
2018-10-16T21:10:09.021Z,17.10
2018-10-16T21:12:38.303Z,17.10
2018-10-16T21:15:08.809Z,17.10
2018-10-16T21:17:38.066Z,17.00
2018-10-16T21:20:08.100Z,17.00
2018-10-16T21:22:37.427Z,17.00
2018-10-16T21:25:10.170Z,17.00
2018-10-16T21:27:39.390Z,16.90
2018-10-16T21:30:09.831Z,16.90
2018-10-16T21:32:39.110Z,16.90
2018-10-16T21:35:08.454Z,16.90
2018-10-16T21:37:37.754Z,16.80
2018-10-16T21:40:08.008Z,16.80
2018-10-16T21:42:37.322Z,16.80
2018-10-16T21:45:07.340Z,16.80
2018-10-16T21:47:36.626Z,16.70
2018-10-16T21:50:06.006Z,16.70
2018-10-16T21:52:35.260Z,16.70
2018-10-16T21:55:04.949Z,16.70
2018-10-16T21:57:34.177Z,16.70
2018-10-16T22:00:03.593Z,16.60
2018-10-16T22:02:38.214Z,16.60
2018-10-16T22:05:07.566Z,16.60
2018-10-16T22:07:36.790Z,16.60
2018-10-16T22:10:06.673Z,16.50
2018-10-16T22:12:35.936Z,16.50
2018-10-16T22:15:05.493Z,16.50
2018-10-16T22:17:34.728Z,16.50
2018-10-16T22:20:04.030Z,16.50
2018-10-16T22:22:33.275Z,16.40
2018-10-16T22:25:02.543Z,16.40
2018-10-16T22:27:31.801Z,16.40
2018-10-16T22:30:01.067Z,16.40
2018-10-16T22:32:30.377Z,16.30
2018-10-16T22:34:59.797Z,16.30
2018-10-16T22:37:29.138Z,16.30
2018-10-16T22:39:58.393Z,16.30
2018-10-16T22:42:27.804Z,16.30
2018-10-16T22:44:57.204Z,16.30
2018-10-16T22:47:26.573Z,16.20
2018-10-16T22:49:55.835Z,16.20
2018-10-16T22:52:25.126Z,16.20
2018-10-16T22:54:54.444Z,16.20
2018-10-16T22:57:23.679Z,16.10
2018-10-16T22:59:52.933Z,16.10
2018-10-16T23:02:22.203Z,16.10
2018-10-16T23:04:51.540Z,16.10
2018-10-16T23:07:20.762Z,16.00
2018-10-16T23:09:50.027Z,16.00
2018-10-16T23:12:19.269Z,16.00
2018-10-16T23:14:48.527Z,16.00
2018-10-16T23:17:17.790Z,16.00
2018-10-16T23:19:47.042Z,15.90
2018-10-16T23:22:16.304Z,15.90
2018-10-16T23:24:45.565Z,15.90
2018-10-16T23:27:14.831Z,15.90
2018-10-16T23:29:44.106Z,15.90
2018-10-16T23:32:13.346Z,15.80
2018-10-16T23:34:42.591Z,15.80
2018-10-16T23:37:11.945Z,15.80
2018-10-16T23:39:41.147Z,15.80
2018-10-16T23:42:10.400Z,15.80
2018-10-16T23:44:39.665Z,15.80
2018-10-16T23:47:09.025Z,15.70
2018-10-16T23:49:38.185Z,15.70
2018-10-16T23:52:07.446Z,15.70
2018-10-16T23:54:36.687Z,15.70
2018-10-16T23:57:05.983Z,15.70
2018-10-16T23:59:35.233Z,15.60
